createdAt,value
2018-11-07T00:03:21.646Z,27.17
2018-11-07T00:08:25.252Z,22.60
2018-11-07T00:13:28.786Z,24.47
2018-11-07T00:18:32.607Z,22.10
2018-11-07T00:23:36.216Z,23.77
2018-11-07T00:28:39.919Z,18.87
2018-11-07T00:33:43.963Z,20.63
2018-11-07T00:38:47.713Z,24.50
2018-11-07T00:43:51.788Z,24.53
2018-11-07T00:48:56.437Z,23.00
2018-11-07T00:54:00.114Z,27.53
2018-11-07T00:59:03.977Z,25.90
2018-11-07T01:04:07.756Z,20.93
2018-11-07T01:09:12.569Z,20.80
2018-11-07T01:14:16.123Z,27.83
2018-11-07T01:19:19.727Z,25.27
2018-11-07T01:24:23.362Z,21.67
2018-11-07T01:29:27.348Z,28.07
2018-11-07T01:34:30.908Z,24.03
2018-11-07T01:39:34.731Z,24.20
2018-11-07T01:44:38.414Z,22.13
2018-11-07T01:49:42.222Z,28.70
2018-11-07T01:54:45.898Z,22.87
2018-11-07T01:59:49.594Z,25.43
2018-11-07T02:04:53.335Z,24.40
2018-11-07T02:09:56.925Z,25.90
2018-11-07T02:15:02.134Z,23.93
2018-11-07T02:20:07.203Z,26.90
2018-11-07T02:25:11.094Z,25.77
2018-11-07T02:35:28.547Z,23.90
2018-11-07T02:40:32.161Z,23.27
2018-11-07T02:45:35.911Z,26.50
2018-11-07T02:50:40.492Z,21.97
2018-11-07T02:55:44.024Z,26.27
2018-11-07T03:00:47.627Z,21.83
2018-11-07T03:05:51.176Z,26.90
2018-11-07T03:10:55.016Z,26.30
2018-11-07T03:15:58.940Z,27.70
2018-11-07T03:21:02.707Z,26.23
2018-11-07T03:26:06.805Z,26.40
2018-11-07T03:31:10.424Z,23.13
2018-11-07T03:36:14.305Z,25.70
2018-11-07T03:41:17.936Z,26.93
2018-11-07T03:46:21.531Z,24.17
2018-11-07T03:51:25.136Z,30.90
2018-11-07T03:56:28.698Z,25.70
2018-11-07T04:01:32.294Z,27.50
2018-11-07T04:06:35.817Z,24.83
2018-11-07T04:11:39.491Z,22.87
2018-11-07T04:16:43.276Z,23.20
2018-11-07T04:21:47.150Z,23.80
2018-11-07T04:26:51.009Z,23.37
2018-11-07T04:31:54.720Z,24.70
2018-11-07T04:36:58.314Z,22.47
2018-11-07T04:42:01.922Z,23.83
2018-11-07T04:47:05.837Z,25.97
2018-11-07T04:52:09.442Z,22.30
2018-11-07T04:57:12.990Z,23.43
2018-11-07T05:02:16.554Z,26.83
2018-11-07T05:07:20.025Z,39.43
2018-11-07T05:12:23.677Z,31.73
2018-11-07T05:17:27.233Z,36.27
2018-11-07T05:22:30.860Z,33.00
2018-11-07T05:27:36.128Z,29.47
2018-11-07T05:32:39.876Z,31.43
2018-11-07T05:37:43.550Z,30.47
2018-11-07T05:42:47.313Z,29.27
2018-11-07T05:47:50.983Z,28.67
2018-11-07T05:52:54.888Z,30.07
2018-11-07T05:57:58.753Z,29.43
2018-11-07T06:03:02.993Z,25.52
2018-11-07T06:08:07.228Z,28.80
2018-11-07T06:13:10.939Z,26.70
2018-11-07T06:18:14.572Z,21.10
2018-11-07T06:23:18.230Z,20.23
2018-11-07T06:28:22.939Z,19.10
2018-11-07T06:33:28.132Z,23.60
2018-11-07T06:38:33.261Z,20.20
2018-11-07T06:43:37.932Z,18.90
2018-11-07T06:48:43.435Z,16.50
2018-11-07T06:53:48.507Z,21.17
2018-11-07T06:58:55.002Z,18.50
2018-11-07T07:03:58.587Z,20.43
2018-11-07T07:09:03.023Z,20.07
2018-11-07T07:14:06.860Z,26.43
2018-11-07T07:19:10.482Z,27.03
2018-11-07T07:24:14.220Z,26.30
2018-11-07T07:29:17.778Z,21.67
2018-11-07T07:34:21.493Z,24.57
2018-11-07T07:39:25.136Z,22.37
2018-11-07T07:44:28.775Z,27.67
2018-11-07T07:49:32.358Z,21.30
2018-11-07T07:54:36.018Z,27.33
2018-11-07T07:59:39.588Z,21.50
2018-11-07T08:04:43.185Z,18.40
2018-11-07T08:09:46.789Z,21.10
2018-11-07T08:14:50.579Z,21.73
2018-11-07T08:19:54.069Z,22.17
2018-11-07T08:24:57.743Z,21.73
2018-11-07T08:30:01.296Z,17.23
2018-11-07T08:35:05.549Z,16.00
2018-11-07T08:40:14.654Z,15.30
2018-11-07T08:45:18.407Z,16.77
2018-11-07T08:50:22.492Z,13.67
2018-11-07T08:55:26.094Z,18.40
2018-11-07T09:00:32.203Z,14.03
2018-11-07T09:05:35.838Z,10.70
2018-11-07T09:10:39.539Z,9.07
2018-11-07T09:15:43.137Z,6.23
2018-11-07T09:20:46.876Z,7.87
2018-11-07T09:25:50.563Z,6.70
2018-11-07T09:30:54.115Z,8.30
2018-11-07T09:35:57.758Z,7.90
2018-11-07T09:41:02.200Z,7.87
2018-11-07T09:46:06.018Z,9.70
2018-11-07T09:51:09.573Z,9.13
2018-11-07T09:56:13.235Z,9.30
2018-11-07T10:01:16.835Z,9.27
2018-11-07T10:06:20.488Z,6.17
2018-11-07T10:11:24.205Z,7.00
2018-11-07T10:16:27.758Z,6.53
2018-11-07T10:21:31.243Z,5.43
2018-11-07T10:26:34.837Z,6.47
2018-11-07T10:31:38.353Z,6.17
2018-11-07T10:36:41.936Z,7.43
2018-11-07T10:41:45.831Z,7.97
2018-11-07T10:46:49.406Z,6.73
2018-11-07T10:51:53.082Z,5.07
2018-11-07T10:56:56.931Z,4.33
2018-11-07T11:02:02.613Z,4.17
2018-11-07T11:07:06.684Z,4.93
2018-11-07T11:12:10.314Z,4.50
2018-11-07T11:17:13.857Z,6.07
2018-11-07T11:22:17.521Z,2.97
2018-11-07T11:27:21.141Z,3.53
2018-11-07T11:32:25.119Z,4.97
2018-11-07T11:37:28.782Z,4.47
2018-11-07T11:42:32.516Z,5.07
2018-11-07T11:47:36.048Z,4.70
2018-11-07T11:52:39.810Z,2.80
2018-11-07T11:57:43.851Z,3.03
2018-11-07T12:02:47.811Z,3.47
2018-11-07T12:07:52.325Z,2.70
2018-11-07T12:12:56.992Z,2.70
2018-11-07T12:18:00.782Z,2.17
2018-11-07T12:23:04.556Z,2.13
2018-11-07T12:28:08.035Z,1.47
2018-11-07T12:33:11.691Z,2.10
2018-11-07T12:38:15.245Z,1.73
2018-11-07T12:43:22.579Z,2.43
2018-11-07T12:48:26.452Z,5.10
2018-11-07T12:53:30.393Z,3.00
2018-11-07T12:58:34.259Z,1.63
2018-11-07T13:03:38.124Z,3.93
2018-11-07T13:08:41.836Z,2.40
2018-11-07T13:13:45.631Z,2.50
2018-11-07T13:18:49.150Z,1.40
2018-11-07T13:23:52.710Z,1.50
2018-11-07T13:28:56.481Z,3.60
2018-11-07T13:34:00.052Z,4.10
2018-11-07T13:39:04.423Z,1.63
2018-11-07T13:44:07.945Z,1.23
2018-11-07T13:49:11.550Z,1.60
2018-11-07T13:54:16.046Z,2.43
2018-11-07T13:59:19.589Z,2.20
2018-11-07T14:04:23.237Z,1.30
2018-11-07T14:09:26.890Z,1.50
2018-11-07T14:14:30.540Z,2.67
2018-11-07T14:19:34.166Z,2.40
2018-11-07T14:24:37.785Z,2.60
2018-11-07T14:29:41.331Z,2.37
2018-11-07T14:34:45.481Z,2.77
2018-11-07T14:39:48.989Z,5.40
2018-11-07T14:44:52.589Z,8.47
2018-11-07T14:49:56.192Z,8.77
2018-11-07T14:55:00.064Z,11.33
2018-11-07T15:00:04.432Z,10.80
2018-11-07T15:05:09.623Z,9.60
2018-11-07T15:10:14.161Z,9.23
2018-11-07T15:15:19.010Z,9.57
2018-11-07T15:20:22.479Z,11.03
2018-11-07T15:25:26.033Z,12.97
2018-11-07T15:30:29.692Z,14.80
2018-11-07T15:35:33.388Z,12.10
2018-11-07T15:40:36.895Z,14.70
2018-11-07T15:45:40.661Z,14.87
2018-11-07T15:50:50.485Z,11.53
2018-11-07T15:55:54.199Z,10.77
2018-11-07T16:00:57.798Z,12.60
2018-11-07T16:06:01.418Z,11.47
2018-11-07T16:11:05.445Z,15.50
2018-11-07T16:16:09.032Z,17.37
2018-11-07T16:21:12.747Z,18.40
2018-11-07T16:26:16.484Z,10.57
2018-11-07T16:31:23.892Z,14.83
2018-11-07T16:36:27.579Z,10.00
2018-11-07T16:41:31.449Z,12.70
2018-11-07T16:46:35.122Z,14.33
2018-11-07T16:51:38.704Z,13.00
2018-11-07T16:56:42.397Z,12.87
2018-11-07T17:01:46.054Z,14.67
2018-11-07T17:06:49.727Z,15.30
2018-11-07T17:11:53.388Z,16.03
2018-11-07T17:16:57.003Z,15.63
2018-11-07T17:22:00.609Z,12.40
2018-11-07T17:27:04.273Z,12.47
2018-11-07T17:32:08.052Z,13.07
2018-11-07T17:37:11.718Z,11.80
2018-11-07T17:42:15.290Z,15.73
2018-11-07T17:47:18.827Z,12.53
2018-11-07T17:52:22.507Z,10.63
2018-11-07T17:57:39.117Z,9.70
2018-11-07T18:02:42.836Z,9.53
2018-11-07T18:07:46.754Z,10.27
2018-11-07T18:12:50.361Z,8.93
2018-11-07T18:17:57.802Z,11.53
2018-11-07T18:23:01.462Z,9.80
2018-11-07T18:28:05.605Z,7.50
2018-11-07T18:33:09.509Z,9.60
2018-11-07T18:38:13.279Z,8.60
2018-11-07T18:43:16.995Z,7.03
2018-11-07T18:48:20.612Z,10.63
2018-11-07T18:53:31.279Z,10.17
2018-11-07T18:58:34.883Z,8.00
2018-11-07T19:03:38.488Z,6.87
2018-11-07T19:08:42.196Z,6.80
2018-11-07T19:13:45.814Z,9.33
2018-11-07T19:18:49.542Z,6.73
2018-11-07T19:23:53.241Z,8.83
2018-11-07T19:28:56.880Z,5.83
2018-11-07T19:34:00.539Z,8.20
2018-11-07T19:39:05.403Z,5.90
2018-11-07T19:44:10.451Z,7.87
2018-11-07T19:49:14.449Z,8.43
2018-11-07T19:54:19.281Z,5.57
2018-11-07T19:59:22.907Z,6.50
2018-11-07T20:04:26.751Z,8.60
2018-11-07T20:09:30.322Z,8.07
2018-11-07T20:14:33.872Z,4.83
2018-11-07T20:19:37.412Z,6.17
2018-11-07T20:24:41.071Z,6.27
2018-11-07T20:29:44.954Z,8.63
2018-11-07T20:34:48.681Z,7.03
2018-11-07T20:39:52.840Z,6.60
2018-11-07T20:44:56.422Z,7.20
2018-11-07T20:50:00.352Z,7.73
2018-11-07T20:55:04.294Z,5.30
2018-11-07T21:00:13.968Z,7.70
2018-11-07T21:05:23.713Z,8.17
2018-11-07T21:10:27.460Z,9.07
2018-11-07T21:15:30.944Z,10.57
2018-11-07T21:20:34.481Z,8.03
2018-11-07T21:25:38.061Z,7.77
2018-11-07T21:30:41.529Z,8.03
2018-11-07T21:35:45.426Z,7.63
2018-11-07T21:40:49.256Z,6.03
2018-11-07T21:45:52.794Z,11.03
2018-11-07T21:50:56.439Z,8.60
2018-11-07T21:55:59.976Z,9.23
2018-11-07T22:01:03.605Z,6.97
2018-11-07T22:06:07.238Z,10.53
2018-11-07T22:11:10.990Z,7.57
2018-11-07T22:16:14.711Z,6.60
2018-11-07T22:21:18.359Z,14.50
2018-11-07T22:26:21.880Z,7.03
2018-11-07T22:31:25.515Z,11.57
2018-11-07T22:36:29.057Z,8.40
2018-11-07T22:41:32.703Z,8.50
2018-11-07T22:46:36.340Z,8.13
2018-11-07T22:51:42.197Z,10.90
2018-11-07T22:56:45.817Z,10.13
2018-11-07T23:01:49.445Z,7.20
2018-11-07T23:06:52.973Z,6.83
2018-11-07T23:11:56.514Z,8.43
2018-11-07T23:17:00.154Z,5.57
2018-11-07T23:22:03.885Z,5.53
2018-11-07T23:27:07.611Z,5.93
2018-11-07T23:32:11.362Z,7.83
2018-11-07T23:37:15.980Z,5.63
2018-11-07T23:42:19.580Z,5.40
2018-11-07T23:47:23.126Z,7.67
2018-11-07T23:52:32.094Z,9.27
2018-11-07T23:57:35.701Z,5.93
